Time;durP1;ratioP1;P1;durP2;ratioP2;P2;SDS_P1;SDS_P2;PMS_P1;PMS_P2;Temp;Humidity;BMP_temperature;BMP_pressure;BME280_temperature;BME280_humidity;BME280_pressure;Samples;Min_cycle;Max_cycle;Signal;HPM_P1;HPM_P2
2023/03/17 00:01:34;;;;;;;5.10;4.70;;;;;;;-1.53;100.00;97070.59;4982830;28;20852;-67
2023/03/17 00:04:02;;;;;;;5.37;4.80;;;;;;;-1.52;100.00;97064.47;5041002;28;20635;-67
2023/03/17 00:06:31;;;;;;;5.87;5.20;;;;;;;-1.53;100.00;97055.84;5022505;28;20231;-67
2023/03/17 00:08:59;;;;;;;4.77;4.37;;;;;;;-1.51;100.00;97053.97;5036696;28;20206;-66
2023/03/17 00:11:28;;;;;;;6.10;5.60;;;;;;;-1.54;100.00;97061.16;5018340;28;20203;-67
2023/03/17 00:13:56;;;;;;;6.03;5.43;;;;;;;-1.63;100.00;97057.47;5040899;28;20225;-67
2023/03/17 00:16:25;;;;;;;6.30;5.70;;;;;;;-1.59;100.00;97061.50;5041694;28;20342;-67
2023/03/17 00:18:54;;;;;;;5.97;5.43;;;;;;;-1.61;100.00;97050.38;4999805;28;20536;-67
2023/03/17 00:21:27;;;;;;;5.90;5.30;;;;;;;-1.66;100.00;97058.50;5037194;28;20222;-67
2023/03/17 00:23:56;;;;;;;5.60;5.20;;;;;;;-1.68;100.00;97043.97;5036312;28;20461;-66
2023/03/17 00:26:24;;;;;;;5.47;5.07;;;;;;;-1.70;100.00;97049.28;5023802;28;20244;-68
2023/03/17 00:28:53;;;;;;;6.03;5.30;;;;;;;-1.72;100.00;97047.72;5041016;28;20199;-67
2023/03/17 00:31:23;;;;;;;6.77;6.17;;;;;;;-1.78;100.00;97044.63;5035390;28;20246;-67
2023/03/17 00:33:52;;;;;;;5.87;5.27;;;;;;;-1.79;100.00;97036.97;4987296;28;20322;-67
2023/03/17 00:36:22;;;;;;;5.17;4.67;;;;;;;-1.82;100.00;97032.00;5034400;28;20422;-68
2023/03/17 00:38:51;;;;;;;7.03;4.90;;;;;;;-1.82;100.00;97038.00;5025876;28;20251;-67
2023/03/17 00:41:19;;;;;;;4.97;4.57;;;;;;;-1.97;100.00;97013.94;5035639;28;20471;-68
2023/03/17 00:43:47;;;;;;;5.77;5.27;;;;;;;-1.87;100.00;97018.50;5022249;28;20498;-67
2023/03/17 00:46:18;;;;;;;4.50;4.20;;;;;;;-1.91;100.00;97005.72;5037566;28;20238;-67
2023/03/17 00:48:47;;;;;;;5.37;4.80;;;;;;;-1.92;100.00;97008.44;4983427;28;20299;-66
2023/03/17 00:51:15;;;;;;;5.90;5.47;;;;;;;-1.92;100.00;97001.47;5033890;28;20203;-67
2023/03/17 00:53:43;;;;;;;7.50;5.70;;;;;;;-1.94;100.00;97002.53;5012186;28;20400;-66
2023/03/17 00:56:13;;;;;;;6.00;4.97;;;;;;;-1.99;100.00;97005.44;5043127;28;20206;-66
2023/03/17 00:58:41;;;;;;;6.03;5.50;;;;;;;-2.01;100.00;96998.72;5012506;28;21008;-67
2023/03/17 01:01:09;;;;;;;4.97;4.67;;;;;;;-2.00;100.00;97000.38;5038296;28;20298;-67
2023/03/17 01:03:38;;;;;;;5.93;5.23;;;;;;;-1.99;100.00;96997.66;4990933;28;20369;-67
2023/03/17 01:06:09;;;;;;;5.97;5.33;;;;;;;-2.06;100.00;96983.44;5035783;28;21471;-68
2023/03/17 01:08:38;;;;;;;5.67;5.17;;;;;;;-2.10;100.00;96985.44;5009306;28;20290;-67
2023/03/17 01:11:06;;;;;;;5.83;5.33;;;;;;;-2.04;100.00;96997.16;5037371;28;20210;-68
2023/03/17 01:13:34;;;;;;;6.30;5.30;;;;;;;-2.03;100.00;96993.63;5014242;28;20205;-68
2023/03/17 01:16:01;;;;;;;5.60;5.20;;;;;;;-2.08;100.00;97001.75;5038961;28;21254;-68
2023/03/17 01:18:29;;;;;;;5.50;5.10;;;;;;;-2.15;100.00;96989.31;5002970;28;20207;-68
2023/03/17 01:21:01;;;;;;;5.50;5.00;;;;;;;-2.14;100.00;96996.16;5017329;28;20261;-68
2023/03/17 01:23:29;;;;;;;5.90;5.07;;;;;;;-2.15;100.00;96986.72;5010668;28;20230;-68
2023/03/17 01:25:56;;;;;;;5.97;5.47;;;;;;;-2.17;100.00;96976.41;5014852;28;20206;-68
2023/03/17 01:28:24;;;;;;;5.30;4.90;;;;;;;-2.19;100.00;96975.72;5023780;28;20220;-68
2023/03/17 01:30:51;;;;;;;6.20;5.70;;;;;;;-2.21;100.00;96972.38;5036701;28;20701;-68
2023/03/17 01:33:19;;;;;;;6.17;5.43;;;;;;;-2.27;100.00;96960.69;5027817;28;20615;-68
2023/03/17 01:35:47;;;;;;;4.93;4.53;;;;;;;-2.22;100.00;96962.94;5008006;28;20516;-68
2023/03/17 01:38:16;;;;;;;5.40;4.90;;;;;;;-2.24;100.00;96957.03;5012938;28;20797;-68
2023/03/17 01:40:46;;;;;;;4.80;4.40;;;;;;;-2.24;100.00;96967.41;5013060;28;21256;-68
2023/03/17 01:43:18;;;;;;;5.37;5.03;;;;;;;-2.27;100.00;96962.44;5023382;28;20309;-68
2023/03/17 01:46:26;;;;;;;5.83;4.90;;;;;;;-2.26;100.00;96962.34;5038298;28;20398;-68
2023/03/17 01:49:03;;;;;;;6.70;5.60;;;;;;;-2.29;100.00;96946.97;4977058;28;21376;-68
2023/03/17 01:51:32;;;;;;;5.40;4.90;;;;;;;-2.29;100.00;96939.19;5035252;28;20386;-69
2023/03/17 01:54:05;;;;;;;4.73;4.33;;;;;;;-2.28;100.00;96938.25;5012191;28;20607;-68
2023/03/17 01:56:34;;;;;;;5.53;5.00;;;;;;;-2.21;100.00;96933.44;5015768;28;20317;-68
2023/03/17 01:59:03;;;;;;;5.90;5.30;;;;;;;-2.23;100.00;96931.00;5017901;28;20634;-67
2023/03/17 02:01:37;;;;;;;5.13;4.63;;;;;;;-2.22;100.00;96937.00;5038750;28;20230;-69
2023/03/17 02:04:06;;;;;;;5.50;5.00;;;;;;;-2.28;100.00;96916.66;5036220;28;20214;-68
2023/03/17 02:06:34;;;;;;;4.90;4.50;;;;;;;-2.13;100.00;96933.72;4988320;28;20246;-68
2023/03/17 02:09:08;;;;;;;5.33;4.83;;;;;;;-2.09;100.00;96929.97;5021908;28;20918;-68
2023/03/17 02:11:36;;;;;;;4.80;4.50;;;;;;;-2.10;100.00;96936.09;5013452;28;20214;-67
2023/03/17 02:14:04;;;;;;;6.17;4.90;;;;;;;-2.07;100.00;96930.72;5018111;28;20611;-67
2023/03/17 02:16:31;;;;;;;5.80;5.30;;;;;;;-2.06;100.00;96934.97;5036638;28;20557;-68
2023/03/17 02:19:00;;;;;;;4.53;4.23;;;;;;;-2.01;100.00;96928.59;5041380;28;20702;-68
2023/03/17 02:21:31;;;;;;;5.40;4.90;;;;;;;-2.09;100.00;96929.97;4984905;28;20266;-68
2023/03/17 02:24:01;;;;;;;4.50;4.20;;;;;;;-2.04;100.00;96933.09;5012644;28;20199;-67
2023/03/17 02:26:31;;;;;;;4.77;4.40;;;;;;;-2.09;100.00;96932.56;5018688;28;20910;-68
2023/03/17 02:28:59;;;;;;;4.80;4.40;;;;;;;-2.12;100.00;96942.34;5021192;28;20439;-69
2023/03/17 02:31:27;;;;;;;5.20;4.77;;;;;;;-2.23;100.00;96930.16;5032528;28;20268;-69
2023/03/17 02:33:55;;;;;;;4.77;4.43;;;;;;;-2.19;100.00;96939.38;5040231;28;20543;-69
2023/03/17 02:36:23;;;;;;;5.00;4.50;;;;;;;-2.22;100.00;96931.78;5013422;28;20235;-68
2023/03/17 02:38:52;;;;;;;4.63;4.23;;;;;;;-2.27;100.00;96924.38;5014567;28;20328;-68
2023/03/17 02:41:20;;;;;;;5.63;5.13;;;;;;;-2.30;100.00;96923.75;5023222;28;20257;-68
2023/03/17 02:43:48;;;;;;;4.70;4.33;;;;;;;-2.34;100.00;96920.53;5017797;28;20421;-67
2023/03/17 02:46:16;;;;;;;5.33;4.93;;;;;;;-2.55;100.00;96915.09;5021492;28;20240;-67
2023/03/17 02:48:45;;;;;;;5.43;4.93;;;;;;;-2.51;100.00;96922.56;5037756;28;20450;-67
2023/03/17 02:51:13;;;;;;;5.50;5.03;;;;;;;-2.56;100.00;96923.81;5038049;28;20207;-67
2023/03/17 02:53:40;;;;;;;4.87;4.57;;;;;;;-2.64;100.00;96914.00;4987281;28;20211;-67
2023/03/17 02:56:09;;;;;;;4.90;4.50;;;;;;;-2.62;100.00;96919.91;5019188;28;21164;-68
2023/03/17 02:58:37;;;;;;;5.60;5.20;;;;;;;-2.69;100.00;96924.69;5017362;28;20512;-67
2023/03/17 03:01:05;;;;;;;7.43;4.73;;;;;;;-2.75;100.00;96927.72;5018467;28;20238;-68
2023/03/17 03:03:33;;;;;;;5.87;5.37;;;;;;;-2.73;100.00;96925.84;5033271;28;20211;-68
2023/03/17 03:06:00;;;;;;;5.00;4.57;;;;;;;-2.74;100.00;96925.94;5038987;28;20810;-67
2023/03/17 03:08:29;;;;;;;5.03;4.43;;;;;;;-2.78;100.00;96920.16;4981406;28;20629;-67
2023/03/17 03:10:59;;;;;;;4.77;4.43;;;;;;;-2.79;100.00;96915.91;5009215;28;21113;-68
2023/03/17 03:13:28;;;;;;;4.40;4.10;;;;;;;-2.79;100.00;96911.53;5012116;28;20245;-68
2023/03/17 03:15:56;;;;;;;5.00;4.60;;;;;;;-2.79;100.00;96908.94;4989505;28;20207;-68
2023/03/17 03:18:24;;;;;;;5.83;5.30;;;;;;;-2.80;100.00;96896.09;5038685;28;20491;-67
2023/03/17 03:20:51;;;;;;;6.67;4.97;;;;;;;-2.90;100.00;96906.25;5036309;28;21365;-68
2023/03/17 03:23:19;;;;;;;5.13;4.63;;;;;;;-2.89;100.00;96896.72;4986023;28;20799;-67
2023/03/17 03:25:46;;;;;;;4.47;4.07;;;;;;;-2.86;100.00;96891.31;5031300;28;20199;-68
2023/03/17 03:28:14;;;;;;;5.10;4.70;;;;;;;-2.82;100.00;96892.78;5007554;28;20227;-68
2023/03/17 03:30:45;;;;;;;4.80;4.30;;;;;;;-2.82;100.00;96898.78;5034912;28;20199;-68
2023/03/17 03:33:14;;;;;;;5.20;4.77;;;;;;;-2.80;100.00;96898.69;5026708;28;20207;-67
2023/03/17 03:35:43;;;;;;;15.97;10.57;;;;;;;-2.82;100.00;96901.38;5041921;28;20240;-67
2023/03/17 03:38:11;;;;;;;7.20;5.97;;;;;;;-2.75;100.00;96909.56;5027207;28;21163;-67
2023/03/17 03:40:39;;;;;;;5.00;4.57;;;;;;;-2.76;100.00;96913.09;4983432;28;20215;-67
2023/03/17 03:43:07;;;;;;;5.17;4.73;;;;;;;-2.71;100.00;96907.56;4992383;28;20998;-68
2023/03/17 03:45:51;;;;;;;4.93;4.40;;;;;;;-2.80;100.00;96904.69;5035147;28;20298;-68
2023/03/17 03:48:19;;;;;;;5.43;4.67;;;;;;;-2.75;100.00;96904.38;5023452;28;20239;-67
2023/03/17 03:50:46;;;;;;;5.27;4.90;;;;;;;-2.72;100.00;96904.16;5035395;28;20203;-68
2023/03/17 03:53:15;;;;;;;5.33;4.97;;;;;;;-2.74;100.00;96908.63;5034929;28;20405;-68
2023/03/17 03:55:42;;;;;;;4.90;4.60;;;;;;;-2.80;100.00;96909.06;4988682;28;20407;-67
2023/03/17 03:58:10;;;;;;;5.30;4.80;;;;;;;-2.89;100.00;96904.50;5017583;28;20910;-67
2023/03/17 04:00:37;;;;;;;4.80;4.30;;;;;;;-2.94;100.00;96900.44;5019399;28;20246;-67
2023/03/17 04:03:06;;;;;;;5.73;5.13;;;;;;;-2.94;100.00;96894.47;5015341;28;20467;-67
2023/03/17 04:05:34;;;;;;;4.93;4.60;;;;;;;-2.93;100.00;96891.75;5035839;28;20213;-67
2023/03/17 04:08:02;;;;;;;5.23;4.80;;;;;;;-2.91;100.00;96895.06;5031088;28;20624;-67
2023/03/17 04:10:30;;;;;;;4.43;4.13;;;;;;;-2.93;100.00;96893.53;5039746;28;20230;-67
2023/03/17 04:12:58;;;;;;;5.00;4.60;;;;;;;-2.94;100.00;96891.88;4962149;28;20238;-67
2023/03/17 04:15:26;;;;;;;4.80;4.40;;;;;;;-3.02;100.00;96897.56;4996028;28;20210;-68
2023/03/17 04:17:54;;;;;;;5.67;5.17;;;;;;;-3.00;100.00;96900.06;5037357;28;20334;-68
2023/03/17 04:20:23;;;;;;;5.70;5.20;;;;;;;-3.02;100.00;96894.97;5006665;28;20461;-67
2023/03/17 04:22:51;;;;;;;6.57;4.67;;;;;;;-3.02;100.00;96894.97;5034992;28;20733;-68
2023/03/17 04:25:19;;;;;;;5.40;4.90;;;;;;;-3.02;100.00;96894.16;5026855;28;20347;-69
2023/03/17 04:27:46;;;;;;;6.80;4.97;;;;;;;-3.00;100.00;96892.28;4991717;28;20226;-67
2023/03/17 04:30:15;;;;;;;4.97;4.57;;;;;;;-2.94;100.00;96878.91;4987719;28;21655;-68
2023/03/17 04:32:45;;;;;;;4.93;4.43;;;;;;;-2.93;100.00;96865.00;5034878;28;20191;-68
2023/03/17 04:35:14;;;;;;;6.23;4.90;;;;;;;-2.84;100.00;96869.53;5012781;28;20729;-67
2023/03/17 04:37:43;;;;;;;4.47;4.17;;;;;;;-2.87;100.00;96864.56;5033459;28;21065;-66
2023/03/17 04:40:13;;;;;;;4.67;4.27;;;;;;;-2.86;100.00;96879.19;5029112;28;20966;-68
2023/03/17 04:42:41;;;;;;;4.90;4.40;;;;;;;-2.77;100.00;96882.91;4984361;28;20475;-67
2023/03/17 04:45:11;;;;;;;4.67;4.27;;;;;;;-2.77;100.00;96875.13;5019657;28;20225;-68
2023/03/17 04:47:39;;;;;;;4.10;3.80;;;;;;;-2.67;100.00;96883.06;5022617;28;20238;-68
2023/03/17 04:50:07;;;;;;;4.23;3.93;;;;;;;-2.64;100.00;96882.88;5016039;28;20210;-68
2023/03/17 04:52:36;;;;;;;4.93;4.57;;;;;;;-2.64;100.00;96890.66;5036979;28;20602;-67
2023/03/17 04:55:07;;;;;;;5.63;5.23;;;;;;;-2.57;100.00;96880.66;5043580;28;20202;-68
2023/03/17 04:57:34;;;;;;;6.00;5.40;;;;;;;-2.64;100.00;96864.72;4995391;28;20856;-70
2023/03/17 05:00:03;;;;;;;5.00;4.60;;;;;;;-2.71;100.00;96869.50;5022276;28;20207;-69
2023/03/17 05:02:31;;;;;;;5.30;4.80;;;;;;;-2.81;100.00;96886.66;4995618;28;20851;-69
2023/03/17 05:04:58;;;;;;;5.53;4.87;;;;;;;-2.81;100.00;96895.25;5020262;28;20380;-70
2023/03/17 05:07:26;;;;;;;5.50;5.10;;;;;;;-2.83;100.00;96883.34;5035758;28;20230;-68
2023/03/17 05:09:54;;;;;;;5.50;5.00;;;;;;;-2.88;100.00;96881.06;5039832;28;20229;-69
2023/03/17 05:12:23;;;;;;;4.90;4.50;;;;;;;-2.88;100.00;96894.03;4971631;28;20199;-68
2023/03/17 05:14:51;;;;;;;5.33;4.93;;;;;;;-2.86;100.00;96893.91;5043264;28;20756;-68
2023/03/17 05:17:18;;;;;;;5.33;4.83;;;;;;;-2.90;100.00;96877.75;4999948;28;20230;-68
2023/03/17 05:19:46;;;;;;;5.47;4.97;;;;;;;-2.80;100.00;96878.75;5040299;28;20641;-69
2023/03/17 05:22:14;;;;;;;5.93;4.67;;;;;;;-2.83;100.00;96876.38;5020408;28;20215;-69
2023/03/17 05:24:42;;;;;;;4.97;4.57;;;;;;;-2.76;100.00;96881.97;5036788;28;20872;-69
2023/03/17 05:27:10;;;;;;;7.73;5.83;;;;;;;-2.77;100.00;96888.09;5029071;28;20805;-69
2023/03/17 05:29:39;;;;;;;6.90;6.20;;;;;;;-2.79;100.00;96892.56;5012171;28;20494;-69
2023/03/17 05:32:07;;;;;;;7.23;6.63;;;;;;;-2.80;100.00;96896.91;5003600;28;20563;-69
2023/03/17 05:34:35;;;;;;;7.33;6.63;;;;;;;-2.80;100.00;96894.31;5038410;28;20532;-68
2023/03/17 05:37:02;;;;;;;7.47;6.77;;;;;;;-2.81;100.00;96887.47;5020837;28;20469;-69
2023/03/17 05:39:30;;;;;;;6.43;5.83;;;;;;;-2.84;100.00;96895.47;5043036;28;20210;-68
2023/03/17 05:41:58;;;;;;;7.67;6.97;;;;;;;-2.80;100.00;96889.13;5040856;28;20464;-69
2023/03/17 05:44:25;;;;;;;6.67;5.97;;;;;;;-2.78;100.00;96891.63;4988635;28;20250;-69
2023/03/17 05:46:55;;;;;;;6.23;5.73;;;;;;;-2.68;100.00;96903.00;5010762;28;20234;-69
2023/03/17 05:49:23;;;;;;;5.70;5.20;;;;;;;-2.54;100.00;96903.78;5038668;28;20284;-69
2023/03/17 05:51:51;;;;;;;6.07;5.67;;;;;;;-2.46;100.00;96909.28;5018795;28;20211;-69
2023/03/17 05:54:18;;;;;;;6.37;5.77;;;;;;;-2.42;100.00;96895.13;5034368;28;20602;-70
2023/03/17 05:56:46;;;;;;;7.07;6.47;;;;;;;-2.30;100.00;96892.59;5043964;28;20211;-69
2023/03/17 05:59:15;;;;;;;6.57;5.97;;;;;;;-2.29;100.00;96884.69;4998129;28;20502;-70
2023/03/17 06:01:43;;;;;;;6.80;6.30;;;;;;;-2.25;100.00;96877.50;5023477;28;20577;-70
2023/03/17 06:04:12;;;;;;;7.80;7.00;;;;;;;-2.24;100.00;96873.97;5020070;28;20572;-68
2023/03/17 06:06:40;;;;;;;8.50;7.70;;;;;;;-2.20;100.00;96881.44;5018617;28;20485;-69
2023/03/17 06:09:08;;;;;;;8.30;7.50;;;;;;;-2.08;100.00;96876.28;5038177;28;20524;-70
2023/03/17 06:11:35;;;;;;;9.47;6.70;;;;;;;-2.00;100.00;96878.34;5023851;28;20204;-68
2023/03/17 06:14:03;;;;;;;9.63;7.50;;;;;;;-2.01;100.00;96874.91;4968814;28;20637;-69
2023/03/17 06:16:32;;;;;;;7.77;7.00;;;;;;;-1.94;100.00;96880.47;4999072;28;20253;-68
2023/03/17 06:18:59;;;;;;;7.80;6.73;;;;;;;-1.94;100.00;96873.50;5002319;28;20670;-69
2023/03/17 06:21:28;;;;;;;7.30;6.67;;;;;;;-1.85;100.00;96884.16;5015891;28;20203;-68
2023/03/17 06:23:56;;;;;;;7.00;6.30;;;;;;;-1.86;100.00;96885.91;5041766;28;20258;-69
2023/03/17 06:26:24;;;;;;;6.97;6.23;;;;;;;-1.77;100.00;96884.41;5037185;28;20560;-69
2023/03/17 06:28:51;;;;;;;6.47;5.87;;;;;;;-1.77;100.00;96887.81;5046984;28;20446;-69
2023/03/17 06:31:19;;;;;;;6.50;5.03;;;;;;;-1.77;100.00;96879.22;4963686;28;20223;-69
2023/03/17 06:33:47;;;;;;;6.93;6.17;;;;;;;-1.70;100.00;96887.41;5004226;28;20574;-69
2023/03/17 06:36:15;;;;;;;5.37;4.97;;;;;;;-1.80;100.00;96879.44;5034666;28;20535;-68
2023/03/17 06:38:45;;;;;;;5.20;4.70;;;;;;;-1.56;100.00;96888.94;5029597;28;20756;-70
2023/03/17 06:41:13;;;;;;;5.53;5.13;;;;;;;-1.53;100.00;96886.09;5041514;28;20210;-68
2023/03/17 06:43:41;;;;;;;6.93;5.53;;;;;;;-1.51;100.00;96882.47;5041662;28;20468;-68
2023/03/17 06:46:09;;;;;;;4.83;4.43;;;;;;;-1.38;100.00;96894.53;4993946;28;20218;-68
2023/03/17 06:48:37;;;;;;;5.43;5.03;;;;;;;-1.29;100.00;96888.66;5005326;28;20444;-68
2023/03/17 06:51:05;;;;;;;6.03;5.53;;;;;;;-1.14;100.00;96885.81;5046573;28;20301;-67
2023/03/17 06:53:33;;;;;;;6.20;5.70;;;;;;;-1.12;100.00;96876.13;5010167;28;20529;-67
2023/03/17 06:56:03;;;;;;;6.33;5.83;;;;;;;-1.14;100.00;96880.59;5041146;28;20203;-68
2023/03/17 06:58:32;;;;;;;5.63;5.07;;;;;;;-1.06;100.00;96891.25;5035563;28;20303;-68
2023/03/17 07:00:59;;;;;;;5.07;4.53;;;;;;;-0.94;100.00;96889.47;4997459;28;20485;-67
2023/03/17 07:03:27;;;;;;;5.10;4.70;;;;;;;-0.71;100.00;96886.84;5021589;28;20730;-68
2023/03/17 07:05:55;;;;;;;7.13;4.80;;;;;;;-0.53;100.00;96884.59;5016370;28;21079;-68
2023/03/17 07:08:23;;;;;;;5.50;5.00;;;;;;;-0.31;100.00;96881.91;5014336;28;20238;-68
2023/03/17 07:10:51;;;;;;;4.63;4.23;;;;;;;-0.18;100.00;96867.91;5041024;28;20199;-67
2023/03/17 07:13:21;;;;;;;5.43;5.03;;;;;;;0.10;100.00;96863.88;5025242;28;20199;-68
2023/03/17 07:15:48;;;;;;;4.67;4.27;;;;;;;0.35;100.00;96850.59;5044874;28;20490;-68
2023/03/17 07:18:17;;;;;;;4.73;4.23;;;;;;;0.56;100.00;96856.59;4970375;28;20299;-68
2023/03/17 07:20:45;;;;;;;4.33;4.03;;;;;;;0.88;100.00;96857.47;5023593;28;20331;-67
2023/03/17 07:23:14;;;;;;;4.90;4.50;;;;;;;0.98;98.44;96849.69;5014677;28;20215;-68
2023/03/17 07:25:44;;;;;;;4.90;4.43;;;;;;;1.23;94.95;96837.09;5037048;28;20867;-67
2023/03/17 07:28:12;;;;;;;4.37;3.87;;;;;;;1.39;92.25;96841.81;5037008;28;21084;-67
2023/03/17 07:30:45;;;;;;;4.77;4.23;;;;;;;1.66;89.90;96837.72;5035441;28;20206;-67
2023/03/17 07:33:13;;;;;;;4.53;4.13;;;;;;;1.70;87.27;96845.13;4989289;28;20604;-67
2023/03/17 07:35:42;;;;;;;5.77;4.13;;;;;;;1.67;86.35;96848.03;5033339;28;20316;-67
2023/03/17 07:38:10;;;;;;;4.73;4.33;;;;;;;1.54;86.76;96831.81;5009162;28;20254;-68
2023/03/17 07:40:38;;;;;;;6.50;4.90;;;;;;;1.72;86.18;96860.69;5018958;28;20210;-67
2023/03/17 07:43:07;;;;;;;4.97;4.47;;;;;;;1.80;86.06;96845.16;5034028;28;20199;-67
2023/03/17 07:45:35;;;;;;;4.93;4.43;;;;;;;1.85;86.43;96852.59;5030716;28;21536;-67
2023/03/17 07:48:06;;;;;;;4.80;4.40;;;;;;;2.01;84.04;96841.59;5035039;28;20231;-67
2023/03/17 07:50:34;;;;;;;4.20;3.80;;;;;;;2.28;82.48;96853.94;4983417;28;20538;-68
2023/03/17 07:53:03;;;;;;;4.67;4.17;;;;;;;2.41;80.91;96855.41;5014059;28;21156;-67
2023/03/17 07:55:31;;;;;;;4.20;3.87;;;;;;;2.60;79.25;96858.00;5016532;28;20206;-67
2023/03/17 07:57:59;;;;;;;4.20;3.93;;;;;;;2.57;77.96;96852.22;5046120;28;20787;-67
2023/03/17 08:00:27;;;;;;;3.93;3.63;;;;;;;2.78;78.65;96851.22;5036114;28;20230;-68
2023/03/17 08:02:56;;;;;;;5.03;3.30;;;;;;;2.89;77.61;96851.88;5041249;28;20496;-67
2023/03/17 08:05:38;;;;;;;3.93;3.63;;;;;;;3.03;74.95;96868.91;4999526;28;20230;-68
2023/03/17 08:08:06;;;;;;;3.63;3.37;;;;;;;3.13;73.36;96855.75;5011930;28;20372;-68
2023/03/17 08:10:34;;;;;;;4.30;4.00;;;;;;;3.40;74.19;96861.09;5011041;28;20444;-68
2023/03/17 08:13:02;;;;;;;5.53;3.87;;;;;;;3.46;73.80;96847.44;5046960;28;20207;-68
2023/03/17 08:15:30;;;;;;;4.63;4.23;;;;;;;3.61;73.00;96861.69;5033121;28;20995;-68
2023/03/17 08:17:58;;;;;;;3.80;3.50;;;;;;;3.77;72.24;96857.56;5037353;28;20222;-68
2023/03/17 08:20:26;;;;;;;3.90;3.60;;;;;;;3.92;71.14;96857.88;4998483;28;20762;-68
2023/03/17 08:22:55;;;;;;;5.40;4.07;;;;;;;3.98;69.98;96857.31;5020662;28;20207;-68
2023/03/17 08:25:23;;;;;;;5.17;3.70;;;;;;;4.05;68.76;96853.09;5031826;28;20584;-69
2023/03/17 08:27:51;;;;;;;3.87;3.63;;;;;;;4.29;68.38;96849.00;5021743;28;20390;-67
2023/03/17 08:30:20;;;;;;;4.67;4.20;;;;;;;4.37;67.76;96827.28;5033818;28;20206;-69
2023/03/17 08:32:48;;;;;;;3.87;3.67;;;;;;;4.76;67.62;96832.09;5037551;28;20204;-68
2023/03/17 08:35:17;;;;;;;4.17;3.87;;;;;;;5.06;66.46;96818.59;4982908;28;20206;-68
2023/03/17 08:37:46;;;;;;;4.37;3.97;;;;;;;5.20;65.28;96820.66;5012144;28;20388;-67
2023/03/17 08:40:18;;;;;;;4.20;3.90;;;;;;;5.34;65.17;96823.63;5039902;28;20202;-68
2023/03/17 08:42:47;;;;;;;4.77;3.33;;;;;;;5.63;64.55;96815.31;5013846;28;20360;-67
2023/03/17 08:45:17;;;;;;;3.80;3.50;;;;;;;5.63;63.05;96806.63;5038568;28;20283;-68
2023/03/17 08:47:44;;;;;;;5.83;3.97;;;;;;;5.76;63.27;96808.78;5033693;28;20452;-68
2023/03/17 08:50:17;;;;;;;3.23;3.03;;;;;;;6.04;62.43;96811.97;5020485;28;20222;-69
2023/03/17 08:52:45;;;;;;;2.83;2.63;;;;;;;5.76;60.36;96800.91;5021107;28;20447;-68
2023/03/17 08:55:15;;;;;;;3.00;2.80;;;;;;;6.04;58.99;96806.69;5013178;28;20222;-68
2023/03/17 08:57:43;;;;;;;2.90;2.70;;;;;;;6.32;59.93;96798.47;5015017;28;21039;-68
2023/03/17 09:00:13;;;;;;;3.50;2.90;;;;;;;6.27;58.50;96794.69;5038691;28;20709;-68
2023/03/17 09:02:42;;;;;;;3.33;3.03;;;;;;;6.51;59.40;96794.66;5033921;28;20228;-68
2023/03/17 09:05:12;;;;;;;2.97;2.73;;;;;;;6.81;58.60;96794.06;5036250;28;20248;-68
2023/03/17 09:07:40;;;;;;;2.90;2.70;;;;;;;6.90;57.97;96794.88;4987330;28;20487;-68
2023/03/17 09:10:09;;;;;;;2.20;2.00;;;;;;;7.00;55.71;96805.19;5015435;28;20713;-69
2023/03/17 09:12:38;;;;;;;2.93;2.60;;;;;;;7.13;55.68;96809.91;5037388;28;20403;-68
2023/03/17 09:15:07;;;;;;;2.33;2.23;;;;;;;7.52;56.53;96807.25;5021709;28;20225;-68
2023/03/17 09:17:35;;;;;;;5.53;2.40;;;;;;;7.46;54.95;96807.97;5025667;28;20902;-67
2023/03/17 09:20:05;;;;;;;3.20;1.97;;;;;;;7.71;53.41;96804.34;5036927;28;20203;-67
2023/03/17 09:22:33;;;;;;;2.20;2.10;;;;;;;7.78;52.74;96800.84;4982788;28;20713;-68
2023/03/17 09:25:00;;;;;;;2.33;2.23;;;;;;;7.97;51.23;96785.53;5023210;28;20269;-67
2023/03/17 09:27:28;;;;;;;2.57;2.40;;;;;;;8.10;52.31;96792.84;5029328;28;21528;-67
2023/03/17 09:29:57;;;;;;;4.70;2.60;;;;;;;8.09;51.15;96784.09;5018496;28;20297;-66
2023/03/17 09:32:25;;;;;;;2.30;2.10;;;;;;;8.16;52.08;96784.22;5025938;28;21047;-67
2023/03/17 09:34:52;;;;;;;2.50;1.90;;;;;;;8.19;51.58;96788.31;5037583;28;20350;-67
2023/03/17 09:37:20;;;;;;;1.90;1.80;;;;;;;8.11;51.22;96786.56;5033872;28;20219;-68
2023/03/17 09:39:48;;;;;;;3.43;1.53;;;;;;;8.28;50.67;96787.25;4994708;28;20237;-68
2023/03/17 09:42:23;;;;;;;1.83;1.73;;;;;;;8.60;51.53;96769.47;5012506;28;20290;-68
2023/03/17 09:45:06;;;;;;;1.80;1.70;;;;;;;8.88;50.03;96778.59;5023455;28;20222;-68
2023/03/17 09:47:46;;;;;;;1.77;1.67;;;;;;;9.01;48.41;96773.47;5039368;28;20328;-67
2023/03/17 09:50:16;;;;;;;1.63;1.53;;;;;;;8.68;48.61;96764.09;5034443;28;20214;-68
2023/03/17 09:52:44;;;;;;;2.43;1.63;;;;;;;8.85;48.58;96771.03;5039103;28;20300;-67
2023/03/17 09:55:17;;;;;;;1.57;1.47;;;;;;;8.85;48.51;96773.66;4988478;28;20238;-68
2023/03/17 09:57:45;;;;;;;1.07;1.07;;;;;;;9.05;48.95;96771.28;5033803;28;20219;-67
2023/03/17 10:00:17;;;;;;;2.33;2.10;;;;;;;9.21;49.05;96755.19;5016752;28;20595;-68
2023/03/17 10:02:46;;;;;;;1.93;1.47;;;;;;;9.46;48.83;96768.09;5039644;28;20761;-68
2023/03/17 10:05:19;;;;;;;1.60;1.50;;;;;;;9.48;46.21;96771.38;5035995;28;20761;-68
2023/03/17 10:07:51;;;;;;;4.43;1.70;;;;;;;9.48;48.01;96766.06;5044543;28;20229;-68
2023/03/17 10:10:23;;;;;;;1.70;1.60;;;;;;;9.66;47.72;96768.28;4992967;28;20659;-68
2023/03/17 10:12:58;;;;;;;1.83;1.73;;;;;;;9.68;45.29;96754.91;5017215;28;20218;-68
2023/03/17 10:15:33;;;;;;;2.13;1.70;;;;;;;9.74;48.00;96748.84;5023993;28;20217;-68
2023/03/17 10:18:01;;;;;;;2.70;1.50;;;;;;;9.79;46.14;96749.09;5036537;28;20276;-68
2023/03/17 10:20:33;;;;;;;4.83;1.80;;;;;;;9.88;46.19;96749.78;5029713;28;20204;-67
2023/03/17 10:23:03;;;;;;;1.57;1.47;;;;;;;10.05;44.80;96738.91;5031660;28;20745;-67
2023/03/17 10:25:34;;;;;;;1.50;1.43;;;;;;;10.33;44.20;96733.63;4992733;28;21145;-68
2023/03/17 10:28:03;;;;;;;1.70;1.37;;;;;;;10.49;43.37;96737.84;5023559;28;20227;-68
2023/03/17 10:30:37;;;;;;;1.90;1.57;;;;;;;10.52;44.33;96728.69;5015370;28;20676;-68
2023/03/17 10:33:06;;;;;;;4.00;2.20;;;;;;;10.76;42.89;96723.91;5034738;28;20283;-67
2023/03/17 10:35:38;;;;;;;3.03;1.40;;;;;;;10.65;40.58;96725.31;5034816;28;20394;-67
2023/03/17 10:38:15;;;;;;;1.17;1.07;;;;;;;10.73;40.69;96733.09;5038799;28;20732;-67
2023/03/17 10:40:46;;;;;;;1.37;1.33;;;;;;;10.88;40.02;96730.31;4989283;28;21353;-67
2023/03/17 10:43:19;;;;;;;1.23;1.13;;;;;;;10.54;41.59;96735.41;5037783;28;20244;-68
2023/03/17 10:45:55;;;;;;;1.20;1.10;;;;;;;10.83;41.56;96727.44;5026339;28;20222;-68
2023/03/17 10:48:24;;;;;;;1.10;1.10;;;;;;;11.07;40.90;96722.63;5017703;28;20230;-68
2023/03/17 10:50:51;;;;;;;2.20;1.40;;;;;;;10.93;40.99;96729.69;5041054;28;20203;-68
2023/03/17 10:53:26;;;;;;;3.20;1.30;;;;;;;10.98;42.20;96729.91;5026987;28;20207;-69
2023/03/17 10:55:58;;;;;;;2.07;1.23;;;;;;;10.92;41.40;96720.94;5037841;28;20203;-69
2023/03/17 10:58:38;;;;;;;1.50;1.40;;;;;;;11.13;42.23;96716.53;4971563;28;20224;-69
2023/03/17 11:01:11;;;;;;;1.23;1.17;;;;;;;11.17;41.77;96720.41;5037640;28;20943;-69
2023/03/17 11:03:39;;;;;;;1.50;1.40;;;;;;;11.19;42.55;96715.75;5015435;28;20855;-68
2023/03/17 11:06:10;;;;;;;1.10;1.03;;;;;;;11.31;41.51;96715.97;5041818;28;20551;-68
2023/03/17 11:08:41;;;;;;;1.43;1.33;;;;;;;11.51;42.43;96709.91;5035020;28;21049;-68
2023/03/17 11:11:23;;;;;;;1.50;1.40;;;;;;;11.42;41.65;96693.34;5038760;28;20208;-69
2023/03/17 11:14:01;;;;;;;2.23;1.47;;;;;;;11.52;40.38;96690.31;5018945;28;20207;-68
2023/03/17 11:16:32;;;;;;;1.53;1.43;;;;;;;11.62;40.66;96697.88;5033335;28;20219;-70
2023/03/17 11:19:00;;;;;;;1.57;1.47;;;;;;;11.52;43.93;96685.81;5020683;28;21119;-69
2023/03/17 11:21:30;;;;;;;1.90;1.80;;;;;;;11.63;43.03;96691.56;5031587;28;20744;-69
2023/03/17 11:24:03;;;;;;;1.33;1.33;;;;;;;11.81;43.49;96688.28;5037712;28;20203;-67
2023/03/17 11:26:46;;;;;;;1.50;1.43;;;;;;;11.84;41.09;96686.03;5037769;28;20340;-69
2023/03/17 11:29:22;;;;;;;1.40;1.40;;;;;;;11.96;43.19;96682.78;4986071;28;20233;-70
2023/03/17 11:31:58;;;;;;;1.70;1.60;;;;;;;12.11;42.84;96682.56;5041018;28;20705;-68
2023/03/17 11:34:35;;;;;;;2.13;1.40;;;;;;;12.01;40.51;96681.16;5016802;28;20543;-68
2023/03/17 11:37:08;;;;;;;1.70;1.60;;;;;;;11.98;42.34;96678.88;5034509;28;20228;-68
2023/03/17 11:39:42;;;;;;;1.60;1.50;;;;;;;12.16;44.60;96675.63;5036715;28;20224;-69